sensor_id;sensor_type;location;lat;lon;timestamp;temperature;humidity
12634;DHT22;6382;48.614;8.880;2023-07-31T00:00:05;14.50;99.90
12634;DHT22;6382;48.614;8.880;2023-07-31T00:02:32;14.40;99.90
12634;DHT22;6382;48.614;8.880;2023-07-31T00:04:59;14.60;99.90
12634;DHT22;6382;48.614;8.880;2023-07-31T00:07:26;14.40;99.90
12634;DHT22;6382;48.614;8.880;2023-07-31T00:09:53;14.30;99.90
12634;DHT22;6382;48.614;8.880;2023-07-31T00:12:25;14.30;99.90
12634;DHT22;6382;48.614;8.880;2023-07-31T00:14:52;14.30;99.90
12634;DHT22;6382;48.614;8.880;2023-07-31T00:17:19;15.80;99.90
12634;DHT22;6382;48.614;8.880;2023-07-31T00:19:46;14.20;99.90
12634;DHT22;6382;48.614;8.880;2023-07-31T00:22:13;14.50;99.90
12634;DHT22;6382;48.614;8.880;2023-07-31T00:24:39;15.90;99.90
12634;DHT22;6382;48.614;8.880;2023-07-31T00:27:06;14.30;99.90
12634;DHT22;6382;48.614;8.880;2023-07-31T00:29:33;15.70;99.90
12634;DHT22;6382;48.614;8.880;2023-07-31T00:31:59;15.90;99.90
12634;DHT22;6382;48.614;8.880;2023-07-31T00:34:26;15.80;99.90
12634;DHT22;6382;48.614;8.880;2023-07-31T00:36:53;14.20;99.90
12634;DHT22;6382;48.614;8.880;2023-07-31T00:39:20;15.00;99.90
12634;DHT22;6382;48.614;8.880;2023-07-31T00:41:46;15.90;99.90
12634;DHT22;6382;48.614;8.880;2023-07-31T00:44:13;14.30;99.90
12634;DHT22;6382;48.614;8.880;2023-07-31T00:46:40;14.00;99.90
12634;DHT22;6382;48.614;8.880;2023-07-31T00:49:07;15.00;99.90
12634;DHT22;6382;48.614;8.880;2023-07-31T00:51:34;14.50;99.90
12634;DHT22;6382;48.614;8.880;2023-07-31T00:54:00;15.50;99.90
12634;DHT22;6382;48.614;8.880;2023-07-31T00:56:28;16.20;99.90
12634;DHT22;6382;48.614;8.880;2023-07-31T00:58:55;15.00;99.90
12634;DHT22;6382;48.614;8.880;2023-07-31T01:01:22;15.70;99.90
12634;DHT22;6382;48.614;8.880;2023-07-31T01:03:49;16.20;99.90
12634;DHT22;6382;48.614;8.880;2023-07-31T01:06:30;15.40;99.90
12634;DHT22;6382;48.614;8.880;2023-07-31T01:11:56;14.30;99.90
12634;DHT22;6382;48.614;8.880;2023-07-31T01:14:23;14.30;99.90
12634;DHT22;6382;48.614;8.880;2023-07-31T01:16:50;14.70;99.90
12634;DHT22;6382;48.614;8.880;2023-07-31T01:19:18;14.30;99.90
12634;DHT22;6382;48.614;8.880;2023-07-31T01:24:35;14.20;99.90
12634;DHT22;6382;48.614;8.880;2023-07-31T01:27:04;14.20;99.90
12634;DHT22;6382;48.614;8.880;2023-07-31T01:32:02;14.10;99.90
12634;DHT22;6382;48.614;8.880;2023-07-31T01:34:30;14.10;99.90
12634;DHT22;6382;48.614;8.880;2023-07-31T01:36:57;15.30;99.90
12634;DHT22;6382;48.614;8.880;2023-07-31T01:39:24;15.10;99.90
12634;DHT22;6382;48.614;8.880;2023-07-31T01:41:51;14.00;99.90
12634;DHT22;6382;48.614;8.880;2023-07-31T01:44:18;14.90;99.90
12634;DHT22;6382;48.614;8.880;2023-07-31T01:46:45;14.80;99.90
12634;DHT22;6382;48.614;8.880;2023-07-31T01:49:12;15.20;99.90
12634;DHT22;6382;48.614;8.880;2023-07-31T01:51:38;15.60;99.90
12634;DHT22;6382;48.614;8.880;2023-07-31T01:54:05;16.10;99.90
12634;DHT22;6382;48.614;8.880;2023-07-31T01:56:32;15.20;99.90
12634;DHT22;6382;48.614;8.880;2023-07-31T01:58:58;14.80;99.90
12634;DHT22;6382;48.614;8.880;2023-07-31T02:01:25;15.20;99.90
12634;DHT22;6382;48.614;8.880;2023-07-31T02:03:54;14.30;99.90
12634;DHT22;6382;48.614;8.880;2023-07-31T02:06:21;14.70;99.90
12634;DHT22;6382;48.614;8.880;2023-07-31T02:08:49;14.20;99.90
12634;DHT22;6382;48.614;8.880;2023-07-31T02:11:16;12.60;99.90
12634;DHT22;6382;48.614;8.880;2023-07-31T02:13:42;12.60;99.90
12634;DHT22;6382;48.614;8.880;2023-07-31T02:16:09;14.20;99.90
12634;DHT22;6382;48.614;8.880;2023-07-31T02:18:36;13.20;99.90
12634;DHT22;6382;48.614;8.880;2023-07-31T02:21:03;13.00;99.90
12634;DHT22;6382;48.614;8.880;2023-07-31T02:23:29;12.70;99.90
12634;DHT22;6382;48.614;8.880;2023-07-31T02:25:56;14.90;99.90
12634;DHT22;6382;48.614;8.880;2023-07-31T02:28:23;13.70;99.90
12634;DHT22;6382;48.614;8.880;2023-07-31T02:30:50;14.20;99.90
12634;DHT22;6382;48.614;8.880;2023-07-31T02:33:18;13.80;99.90
12634;DHT22;6382;48.614;8.880;2023-07-31T02:35:45;14.60;99.90
12634;DHT22;6382;48.614;8.880;2023-07-31T02:38:12;13.20;99.90
12634;DHT22;6382;48.614;8.880;2023-07-31T02:40:39;14.80;99.90
12634;DHT22;6382;48.614;8.880;2023-07-31T02:43:06;13.20;99.90
12634;DHT22;6382;48.614;8.880;2023-07-31T02:45:33;12.90;99.90
12634;DHT22;6382;48.614;8.880;2023-07-31T02:48:00;14.70;99.90
12634;DHT22;6382;48.614;8.880;2023-07-31T02:50:27;14.40;99.90
12634;DHT22;6382;48.614;8.880;2023-07-31T02:52:56;14.50;99.90
12634;DHT22;6382;48.614;8.880;2023-07-31T02:55:23;14.20;99.90
12634;DHT22;6382;48.614;8.880;2023-07-31T02:57:50;15.00;99.90
12634;DHT22;6382;48.614;8.880;2023-07-31T03:00:18;15.20;99.90
12634;DHT22;6382;48.614;8.880;2023-07-31T03:02:45;12.90;99.90
12634;DHT22;6382;48.614;8.880;2023-07-31T03:05:12;13.60;99.90
12634;DHT22;6382;48.614;8.880;2023-07-31T03:07:39;14.90;99.90
12634;DHT22;6382;48.614;8.880;2023-07-31T03:10:06;12.70;99.90
12634;DHT22;6382;48.614;8.880;2023-07-31T03:12:32;12.60;99.90
12634;DHT22;6382;48.614;8.880;2023-07-31T03:15:00;13.60;99.90
12634;DHT22;6382;48.614;8.880;2023-07-31T03:17:26;12.50;99.90
12634;DHT22;6382;48.614;8.880;2023-07-31T03:19:53;12.40;99.90
12634;DHT22;6382;48.614;8.880;2023-07-31T03:22:20;12.40;99.90
12634;DHT22;6382;48.614;8.880;2023-07-31T03:24:46;14.40;99.90
12634;DHT22;6382;48.614;8.880;2023-07-31T03:27:13;12.50;99.90
12634;DHT22;6382;48.614;8.880;2023-07-31T03:29:40;12.50;99.90
12634;DHT22;6382;48.614;8.880;2023-07-31T03:32:07;14.00;99.90
12634;DHT22;6382;48.614;8.880;2023-07-31T03:34:34;12.60;99.90
12634;DHT22;6382;48.614;8.880;2023-07-31T03:37:01;12.60;99.90
12634;DHT22;6382;48.614;8.880;2023-07-31T03:39:28;12.60;99.90
12634;DHT22;6382;48.614;8.880;2023-07-31T03:41:54;12.70;99.90
12634;DHT22;6382;48.614;8.880;2023-07-31T03:44:21;12.70;99.90
12634;DHT22;6382;48.614;8.880;2023-07-31T03:46:48;12.70;99.90
12634;DHT22;6382;48.614;8.880;2023-07-31T03:49:15;12.60;99.90
12634;DHT22;6382;48.614;8.880;2023-07-31T03:51:42;12.60;99.90
12634;DHT22;6382;48.614;8.880;2023-07-31T03:54:09;14.10;99.90
12634;DHT22;6382;48.614;8.880;2023-07-31T03:56:36;12.80;99.90
12634;DHT22;6382;48.614;8.880;2023-07-31T03:59:04;12.90;99.90
12634;DHT22;6382;48.614;8.880;2023-07-31T04:01:31;13.00;99.90
12634;DHT22;6382;48.614;8.880;2023-07-31T04:03:58;13.20;99.90
12634;DHT22;6382;48.614;8.880;2023-07-31T04:06:25;13.30;99.90
12634;DHT22;6382;48.614;8.880;2023-07-31T04:08:54;15.20;99.90
12634;DHT22;6382;48.614;8.880;2023-07-31T04:11:21;15.50;99.90
12634;DHT22;6382;48.614;8.880;2023-07-31T04:13:48;13.70;99.90
12634;DHT22;6382;48.614;8.880;2023-07-31T04:16:14;13.50;99.90
12634;DHT22;6382;48.614;8.880;2023-07-31T04:18:41;13.60;99.90
12634;DHT22;6382;48.614;8.880;2023-07-31T04:21:08;13.70;99.90
12634;DHT22;6382;48.614;8.880;2023-07-31T04:23:34;14.10;99.90
12634;DHT22;6382;48.614;8.880;2023-07-31T04:26:01;13.80;99.90
12634;DHT22;6382;48.614;8.880;2023-07-31T04:28:28;14.80;99.90
12634;DHT22;6382;48.614;8.880;2023-07-31T04:30:55;14.00;99.90
12634;DHT22;6382;48.614;8.880;2023-07-31T04:33:22;14.00;99.90
12634;DHT22;6382;48.614;8.880;2023-07-31T04:35:52;15.60;99.90
12634;DHT22;6382;48.614;8.880;2023-07-31T04:38:20;14.10;99.90
12634;DHT22;6382;48.614;8.880;2023-07-31T04:40:47;14.20;99.90
12634;DHT22;6382;48.614;8.880;2023-07-31T04:43:14;14.20;99.90
12634;DHT22;6382;48.614;8.880;2023-07-31T04:45:42;14.30;99.90
12634;DHT22;6382;48.614;8.880;2023-07-31T04:48:09;14.40;99.90
12634;DHT22;6382;48.614;8.880;2023-07-31T04:50:36;16.20;99.90
12634;DHT22;6382;48.614;8.880;2023-07-31T04:53:03;14.40;99.90
12634;DHT22;6382;48.614;8.880;2023-07-31T04:55:30;14.50;99.90
12634;DHT22;6382;48.614;8.880;2023-07-31T04:57:58;14.50;99.90
12634;DHT22;6382;48.614;8.880;2023-07-31T05:00:25;15.90;99.90
12634;DHT22;6382;48.614;8.880;2023-07-31T05:02:51;14.70;99.90
12634;DHT22;6382;48.614;8.880;2023-07-31T05:05:19;14.80;99.90
12634;DHT22;6382;48.614;8.880;2023-07-31T05:07:45;14.80;99.90
12634;DHT22;6382;48.614;8.880;2023-07-31T05:10:12;15.50;99.90
12634;DHT22;6382;48.614;8.880;2023-07-31T05:12:39;15.00;99.90
12634;DHT22;6382;48.614;8.880;2023-07-31T05:15:06;15.30;99.90
12634;DHT22;6382;48.614;8.880;2023-07-31T05:17:32;15.20;99.90
12634;DHT22;6382;48.614;8.880;2023-07-31T05:19:59;15.90;99.90
12634;DHT22;6382;48.614;8.880;2023-07-31T05:22:26;15.90;99.90
12634;DHT22;6382;48.614;8.880;2023-07-31T05:24:53;15.40;99.90
12634;DHT22;6382;48.614;8.880;2023-07-31T05:27:20;15.70;99.90
12634;DHT22;6382;48.614;8.880;2023-07-31T05:29:47;15.60;99.90
12634;DHT22;6382;48.614;8.880;2023-07-31T05:32:14;17.10;99.90
12634;DHT22;6382;48.614;8.880;2023-07-31T05:34:41;15.80;99.90
12634;DHT22;6382;48.614;8.880;2023-07-31T05:37:09;16.00;99.90
12634;DHT22;6382;48.614;8.880;2023-07-31T05:39:36;17.30;99.90
12634;DHT22;6382;48.614;8.880;2023-07-31T05:42:03;17.50;99.90
12634;DHT22;6382;48.614;8.880;2023-07-31T05:44:30;16.20;99.90
12634;DHT22;6382;48.614;8.880;2023-07-31T05:46:57;16.40;99.90
12634;DHT22;6382;48.614;8.880;2023-07-31T05:49:24;17.00;99.90
12634;DHT22;6382;48.614;8.880;2023-07-31T05:51:51;16.20;99.90
12634;DHT22;6382;48.614;8.880;2023-07-31T05:54:17;16.50;99.90
12634;DHT22;6382;48.614;8.880;2023-07-31T05:56:44;17.20;99.90
12634;DHT22;6382;48.614;8.880;2023-07-31T05:59:12;17.80;99.90
12634;DHT22;6382;48.614;8.880;2023-07-31T06:01:39;16.10;99.90
12634;DHT22;6382;48.614;8.880;2023-07-31T06:04:06;16.40;99.90
12634;DHT22;6382;48.614;8.880;2023-07-31T06:06:33;16.90;99.90
12634;DHT22;6382;48.614;8.880;2023-07-31T06:09:00;16.10;99.90
12634;DHT22;6382;48.614;8.880;2023-07-31T06:11:27;16.70;99.90
12634;DHT22;6382;48.614;8.880;2023-07-31T06:13:53;16.20;99.90
12634;DHT22;6382;48.614;8.880;2023-07-31T06:16:20;16.30;99.90
12634;DHT22;6382;48.614;8.880;2023-07-31T06:18:48;16.40;99.90
12634;DHT22;6382;48.614;8.880;2023-07-31T06:21:14;17.10;99.90
12634;DHT22;6382;48.614;8.880;2023-07-31T06:23:41;16.60;99.90
12634;DHT22;6382;48.614;8.880;2023-07-31T06:26:11;16.70;99.90
12634;DHT22;6382;48.614;8.880;2023-07-31T06:28:38;16.80;99.90
12634;DHT22;6382;48.614;8.880;2023-07-31T06:31:05;16.90;99.90
12634;DHT22;6382;48.614;8.880;2023-07-31T06:33:32;17.20;99.90
12634;DHT22;6382;48.614;8.880;2023-07-31T06:35:59;17.20;99.90
12634;DHT22;6382;48.614;8.880;2023-07-31T06:38:26;17.20;99.90
12634;DHT22;6382;48.614;8.880;2023-07-31T06:40:53;17.30;99.90
12634;DHT22;6382;48.614;8.880;2023-07-31T06:43:20;17.50;99.90
12634;DHT22;6382;48.614;8.880;2023-07-31T06:45:47;18.50;99.90
12634;DHT22;6382;48.614;8.880;2023-07-31T06:48:16;17.50;99.90
12634;DHT22;6382;48.614;8.880;2023-07-31T06:50:43;17.50;99.90
12634;DHT22;6382;48.614;8.880;2023-07-31T06:53:10;17.50;99.90
12634;DHT22;6382;48.614;8.880;2023-07-31T06:55:37;17.60;99.90
12634;DHT22;6382;48.614;8.880;2023-07-31T06:58:04;18.40;99.90
12634;DHT22;6382;48.614;8.880;2023-07-31T07:00:31;18.10;99.90
12634;DHT22;6382;48.614;8.880;2023-07-31T07:02:59;17.60;99.90
12634;DHT22;6382;48.614;8.880;2023-07-31T07:05:26;19.10;99.90
12634;DHT22;6382;48.614;8.880;2023-07-31T07:07:52;17.60;99.90
12634;DHT22;6382;48.614;8.880;2023-07-31T07:10:19;17.70;99.90
12634;DHT22;6382;48.614;8.880;2023-07-31T07:12:47;19.50;99.90
12634;DHT22;6382;48.614;8.880;2023-07-31T07:15:14;19.40;99.90
12634;DHT22;6382;48.614;8.880;2023-07-31T07:17:41;17.90;99.90
12634;DHT22;6382;48.614;8.880;2023-07-31T07:20:08;18.00;99.90
12634;DHT22;6382;48.614;8.880;2023-07-31T07:22:34;18.10;99.90
12634;DHT22;6382;48.614;8.880;2023-07-31T07:25:02;18.90;99.90
12634;DHT22;6382;48.614;8.880;2023-07-31T07:27:29;18.10;99.90
12634;DHT22;6382;48.614;8.880;2023-07-31T07:29:56;18.20;99.90
12634;DHT22;6382;48.614;8.880;2023-07-31T07:32:23;18.20;99.90
12634;DHT22;6382;48.614;8.880;2023-07-31T07:34:50;18.10;99.90
12634;DHT22;6382;48.614;8.880;2023-07-31T07:37:17;18.10;99.90
12634;DHT22;6382;48.614;8.880;2023-07-31T07:39:44;19.00;99.90
12634;DHT22;6382;48.614;8.880;2023-07-31T07:42:11;18.70;99.90
12634;DHT22;6382;48.614;8.880;2023-07-31T07:44:38;18.40;99.90
12634;DHT22;6382;48.614;8.880;2023-07-31T07:47:04;18.50;99.90
12634;DHT22;6382;48.614;8.880;2023-07-31T07:49:34;18.50;99.90
12634;DHT22;6382;48.614;8.880;2023-07-31T07:52:02;18.40;99.90
12634;DHT22;6382;48.614;8.880;2023-07-31T07:54:28;18.40;99.90
12634;DHT22;6382;48.614;8.880;2023-07-31T07:56:55;18.40;99.90
12634;DHT22;6382;48.614;8.880;2023-07-31T07:59:22;18.60;99.90
12634;DHT22;6382;48.614;8.880;2023-07-31T08:01:49;18.70;99.90
12634;DHT22;6382;48.614;8.880;2023-07-31T08:04:16;18.90;99.90
12634;DHT22;6382;48.614;8.880;2023-07-31T08:06:42;19.10;99.90
12634;DHT22;6382;48.614;8.880;2023-07-31T08:09:09;19.20;99.90
12634;DHT22;6382;48.614;8.880;2023-07-31T08:11:36;19.20;99.90
12634;DHT22;6382;48.614;8.880;2023-07-31T08:14:02;19.30;99.90
12634;DHT22;6382;48.614;8.880;2023-07-31T08:16:29;20.90;99.90
12634;DHT22;6382;48.614;8.880;2023-07-31T08:18:56;19.50;99.90
12634;DHT22;6382;48.614;8.880;2023-07-31T08:21:27;19.50;99.90
12634;DHT22;6382;48.614;8.880;2023-07-31T08:23:54;19.50;99.90
12634;DHT22;6382;48.614;8.880;2023-07-31T08:26:21;19.60;99.90
12634;DHT22;6382;48.614;8.880;2023-07-31T08:28:47;19.60;99.90
12634;DHT22;6382;48.614;8.880;2023-07-31T08:31:14;19.60;99.90
12634;DHT22;6382;48.614;8.880;2023-07-31T08:33:41;19.80;99.90
12634;DHT22;6382;48.614;8.880;2023-07-31T08:36:08;19.90;99.90
12634;DHT22;6382;48.614;8.880;2023-07-31T08:38:35;20.60;99.90
12634;DHT22;6382;48.614;8.880;2023-07-31T08:41:05;20.10;99.90
12634;DHT22;6382;48.614;8.880;2023-07-31T08:43:31;20.10;99.90
12634;DHT22;6382;48.614;8.880;2023-07-31T08:45:58;20.20;99.90
12634;DHT22;6382;48.614;8.880;2023-07-31T08:48:26;20.10;99.90
12634;DHT22;6382;48.614;8.880;2023-07-31T08:50:54;20.10;99.90
12634;DHT22;6382;48.614;8.880;2023-07-31T08:53:21;19.40;99.90
12634;DHT22;6382;48.614;8.880;2023-07-31T08:55:48;20.30;99.90
12634;DHT22;6382;48.614;8.880;2023-07-31T08:58:15;21.40;99.90
12634;DHT22;6382;48.614;8.880;2023-07-31T09:00:43;20.70;99.90
12634;DHT22;6382;48.614;8.880;2023-07-31T09:05:39;20.80;99.90
12634;DHT22;6382;48.614;8.880;2023-07-31T09:08:08;20.50;99.90
12634;DHT22;6382;48.614;8.880;2023-07-31T09:10:39;21.20;99.90
12634;DHT22;6382;48.614;8.880;2023-07-31T09:13:07;21.40;99.90
12634;DHT22;6382;48.614;8.880;2023-07-31T09:15:38;21.40;99.90
12634;DHT22;6382;48.614;8.880;2023-07-31T09:18:06;21.40;99.90
12634;DHT22;6382;48.614;8.880;2023-07-31T09:20:33;21.30;99.90
12634;DHT22;6382;48.614;8.880;2023-07-31T09:25:33;21.20;99.90
12634;DHT22;6382;48.614;8.880;2023-07-31T09:28:01;20.90;99.90
12634;DHT22;6382;48.614;8.880;2023-07-31T09:30:29;21.50;99.90
12634;DHT22;6382;48.614;8.880;2023-07-31T09:33:05;21.70;99.90
12634;DHT22;6382;48.614;8.880;2023-07-31T09:35:34;20.70;99.90
12634;DHT22;6382;48.614;8.880;2023-07-31T09:38:12;20.80;99.90
12634;DHT22;6382;48.614;8.880;2023-07-31T09:40:42;20.80;99.90
12634;DHT22;6382;48.614;8.880;2023-07-31T09:43:10;20.80;99.90
12634;DHT22;6382;48.614;8.880;2023-07-31T09:45:38;20.80;99.90
12634;DHT22;6382;48.614;8.880;2023-07-31T09:48:14;20.80;99.90
12634;DHT22;6382;48.614;8.880;2023-07-31T09:50:45;20.90;99.90
12634;DHT22;6382;48.614;8.880;2023-07-31T09:53:12;21.00;99.90
12634;DHT22;6382;48.614;8.880;2023-07-31T09:55:39;21.20;99.90
12634;DHT22;6382;48.614;8.880;2023-07-31T09:58:07;21.20;99.90
12634;DHT22;6382;48.614;8.880;2023-07-31T10:00:34;21.30;99.90
12634;DHT22;6382;48.614;8.880;2023-07-31T10:03:03;21.50;99.90
12634;DHT22;6382;48.614;8.880;2023-07-31T10:05:33;21.80;99.90
12634;DHT22;6382;48.614;8.880;2023-07-31T10:08:01;21.90;99.90
12634;DHT22;6382;48.614;8.880;2023-07-31T10:10:27;22.80;99.90
12634;DHT22;6382;48.614;8.880;2023-07-31T10:12:56;23.20;99.90
12634;DHT22;6382;48.614;8.880;2023-07-31T10:15:23;22.00;99.90
12634;DHT22;6382;48.614;8.880;2023-07-31T10:17:51;22.30;99.90
12634;DHT22;6382;48.614;8.880;2023-07-31T10:20:18;22.00;99.90
12634;DHT22;6382;48.614;8.880;2023-07-31T10:22:45;22.00;99.90
12634;DHT22;6382;48.614;8.880;2023-07-31T10:25:12;22.10;99.90
12634;DHT22;6382;48.614;8.880;2023-07-31T10:27:39;22.10;99.90
12634;DHT22;6382;48.614;8.880;2023-07-31T10:30:11;22.00;99.90
12634;DHT22;6382;48.614;8.880;2023-07-31T10:32:39;22.10;99.90
12634;DHT22;6382;48.614;8.880;2023-07-31T10:35:08;23.50;99.90
12634;DHT22;6382;48.614;8.880;2023-07-31T10:37:36;22.20;99.90
12634;DHT22;6382;48.614;8.880;2023-07-31T10:40:11;22.20;99.90
12634;DHT22;6382;48.614;8.880;2023-07-31T10:42:49;22.20;99.90
12634;DHT22;6382;48.614;8.880;2023-07-31T10:48:15;22.20;99.90
12634;DHT22;6382;48.614;8.880;2023-07-31T10:50:47;22.60;99.90
12634;DHT22;6382;48.614;8.880;2023-07-31T10:53:24;22.50;99.90
12634;DHT22;6382;48.614;8.880;2023-07-31T10:55:51;22.60;99.90
12634;DHT22;6382;48.614;8.880;2023-07-31T10:58:19;22.50;99.90
12634;DHT22;6382;48.614;8.880;2023-07-31T11:00:46;23.90;99.90
12634;DHT22;6382;48.614;8.880;2023-07-31T11:03:15;24.10;99.90
12634;DHT22;6382;48.614;8.880;2023-07-31T11:05:46;22.90;99.90
12634;DHT22;6382;48.614;8.880;2023-07-31T11:08:14;22.90;99.90
12634;DHT22;6382;48.614;8.880;2023-07-31T11:10:41;22.90;99.90
12634;DHT22;6382;48.614;8.880;2023-07-31T11:13:08;22.80;99.90
12634;DHT22;6382;48.614;8.880;2023-07-31T11:15:37;23.00;99.90
12634;DHT22;6382;48.614;8.880;2023-07-31T11:18:03;22.40;99.90
12634;DHT22;6382;48.614;8.880;2023-07-31T11:20:32;22.20;99.90
12634;DHT22;6382;48.614;8.880;2023-07-31T11:23:03;21.90;99.90
12634;DHT22;6382;48.614;8.880;2023-07-31T11:25:31;22.20;99.90
12634;DHT22;6382;48.614;8.880;2023-07-31T11:28:04;21.70;99.90
12634;DHT22;6382;48.614;8.880;2023-07-31T11:30:32;21.70;99.90
12634;DHT22;6382;48.614;8.880;2023-07-31T11:33:01;21.70;99.90
12634;DHT22;6382;48.614;8.880;2023-07-31T11:35:33;21.80;99.90
12634;DHT22;6382;48.614;8.880;2023-07-31T11:38:00;21.60;99.90
12634;DHT22;6382;48.614;8.880;2023-07-31T11:40:27;22.10;99.90
12634;DHT22;6382;48.614;8.880;2023-07-31T11:42:58;21.70;99.90
12634;DHT22;6382;48.614;8.880;2023-07-31T11:45:26;21.70;99.90
12634;DHT22;6382;48.614;8.880;2023-07-31T11:47:56;21.70;99.90
12634;DHT22;6382;48.614;8.880;2023-07-31T11:50:23;22.50;99.90
12634;DHT22;6382;48.614;8.880;2023-07-31T11:52:59;21.80;99.90
12634;DHT22;6382;48.614;8.880;2023-07-31T11:55:27;21.80;99.90
12634;DHT22;6382;48.614;8.880;2023-07-31T11:57:54;22.80;99.90
12634;DHT22;6382;48.614;8.880;2023-07-31T12:00:22;21.70;99.90
12634;DHT22;6382;48.614;8.880;2023-07-31T12:02:50;21.80;99.90
12634;DHT22;6382;48.614;8.880;2023-07-31T12:05:17;21.80;99.90
12634;DHT22;6382;48.614;8.880;2023-07-31T12:07:44;21.70;99.90
12634;DHT22;6382;48.614;8.880;2023-07-31T12:10:22;22.60;99.90
12634;DHT22;6382;48.614;8.880;2023-07-31T12:12:55;21.70;99.90
12634;DHT22;6382;48.614;8.880;2023-07-31T12:15:28;21.80;99.90
12634;DHT22;6382;48.614;8.880;2023-07-31T12:17:54;21.90;99.90
12634;DHT22;6382;48.614;8.880;2023-07-31T12:20:21;22.40;99.90
12634;DHT22;6382;48.614;8.880;2023-07-31T12:22:48;21.90;99.90
12634;DHT22;6382;48.614;8.880;2023-07-31T12:25:15;21.60;99.90
12634;DHT22;6382;48.614;8.880;2023-07-31T12:27:45;23.30;99.90
12634;DHT22;6382;48.614;8.880;2023-07-31T12:30:28;21.90;99.90
12634;DHT22;6382;48.614;8.880;2023-07-31T12:32:55;22.20;99.90
12634;DHT22;6382;48.614;8.880;2023-07-31T12:35:22;22.40;99.90
12634;DHT22;6382;48.614;8.880;2023-07-31T12:37:48;22.40;99.90
12634;DHT22;6382;48.614;8.880;2023-07-31T12:40:15;23.70;99.90
12634;DHT22;6382;48.614;8.880;2023-07-31T12:42:49;22.60;99.90
12634;DHT22;6382;48.614;8.880;2023-07-31T12:45:15;22.90;99.90
12634;DHT22;6382;48.614;8.880;2023-07-31T12:47:42;22.80;99.90
12634;DHT22;6382;48.614;8.880;2023-07-31T12:50:09;22.70;99.90
12634;DHT22;6382;48.614;8.880;2023-07-31T12:52:36;22.70;99.90
12634;DHT22;6382;48.614;8.880;2023-07-31T12:55:03;23.60;99.90
12634;DHT22;6382;48.614;8.880;2023-07-31T12:57:31;22.60;99.90
12634;DHT22;6382;48.614;8.880;2023-07-31T12:59:58;23.20;99.90
12634;DHT22;6382;48.614;8.880;2023-07-31T13:02:25;22.70;99.90
12634;DHT22;6382;48.614;8.880;2023-07-31T13:04:52;22.80;99.90
12634;DHT22;6382;48.614;8.880;2023-07-31T13:07:19;23.40;99.90
12634;DHT22;6382;48.614;8.880;2023-07-31T13:09:46;22.90;99.90
12634;DHT22;6382;48.614;8.880;2023-07-31T13:12:13;24.20;99.90
12634;DHT22;6382;48.614;8.880;2023-07-31T13:14:39;23.20;99.90
12634;DHT22;6382;48.614;8.880;2023-07-31T13:17:07;23.00;99.90
12634;DHT22;6382;48.614;8.880;2023-07-31T13:19:34;22.90;99.90
12634;DHT22;6382;48.614;8.880;2023-07-31T13:22:01;23.10;99.90
12634;DHT22;6382;48.614;8.880;2023-07-31T13:24:27;22.90;99.90
12634;DHT22;6382;48.614;8.880;2023-07-31T13:26:55;23.00;99.90
12634;DHT22;6382;48.614;8.880;2023-07-31T13:29:22;23.00;99.90
12634;DHT22;6382;48.614;8.880;2023-07-31T13:31:48;23.10;99.90
12634;DHT22;6382;48.614;8.880;2023-07-31T13:34:15;23.20;99.90
12634;DHT22;6382;48.614;8.880;2023-07-31T13:36:42;23.20;99.90
12634;DHT22;6382;48.614;8.880;2023-07-31T13:39:09;23.20;99.90
12634;DHT22;6382;48.614;8.880;2023-07-31T13:41:36;23.10;99.90
12634;DHT22;6382;48.614;8.880;2023-07-31T13:44:03;23.20;99.90
12634;DHT22;6382;48.614;8.880;2023-07-31T13:46:29;22.90;99.90
12634;DHT22;6382;48.614;8.880;2023-07-31T13:48:56;23.00;99.90
12634;DHT22;6382;48.614;8.880;2023-07-31T13:51:23;23.00;99.90
12634;DHT22;6382;48.614;8.880;2023-07-31T13:53:50;22.90;99.90
12634;DHT22;6382;48.614;8.880;2023-07-31T13:56:16;24.30;99.90
12634;DHT22;6382;48.614;8.880;2023-07-31T13:58:43;24.50;99.90
12634;DHT22;6382;48.614;8.880;2023-07-31T14:01:10;23.00;99.90
12634;DHT22;6382;48.614;8.880;2023-07-31T14:03:37;23.60;99.90
12634;DHT22;6382;48.614;8.880;2023-07-31T14:06:03;22.80;99.90
12634;DHT22;6382;48.614;8.880;2023-07-31T14:08:30;22.70;99.90
12634;DHT22;6382;48.614;8.880;2023-07-31T14:10:57;22.60;99.90
12634;DHT22;6382;48.614;8.880;2023-07-31T14:13:24;23.00;99.90
12634;DHT22;6382;48.614;8.880;2023-07-31T14:15:51;23.50;99.90
12634;DHT22;6382;48.614;8.880;2023-07-31T14:18:18;23.50;99.90
12634;DHT22;6382;48.614;8.880;2023-07-31T14:20:45;22.40;99.90
12634;DHT22;6382;48.614;8.880;2023-07-31T14:23:14;22.60;99.90
12634;DHT22;6382;48.614;8.880;2023-07-31T14:25:42;22.30;99.90
12634;DHT22;6382;48.614;8.880;2023-07-31T14:28:08;22.40;99.90
12634;DHT22;6382;48.614;8.880;2023-07-31T14:30:35;22.40;99.90
12634;DHT22;6382;48.614;8.880;2023-07-31T14:33:02;22.40;99.90
12634;DHT22;6382;48.614;8.880;2023-07-31T14:35:29;22.50;99.90
12634;DHT22;6382;48.614;8.880;2023-07-31T14:37:56;23.00;99.90
12634;DHT22;6382;48.614;8.880;2023-07-31T14:40:23;22.60;99.90
12634;DHT22;6382;48.614;8.880;2023-07-31T14:42:49;22.70;99.90
12634;DHT22;6382;48.614;8.880;2023-07-31T14:45:16;22.80;99.90
12634;DHT22;6382;48.614;8.880;2023-07-31T14:47:43;24.30;99.90
12634;DHT22;6382;48.614;8.880;2023-07-31T14:50:10;23.10;99.90
12634;DHT22;6382;48.614;8.880;2023-07-31T14:52:37;23.20;99.90
12634;DHT22;6382;48.614;8.880;2023-07-31T14:55:04;23.20;99.90
12634;DHT22;6382;48.614;8.880;2023-07-31T14:57:31;23.30;99.90
12634;DHT22;6382;48.614;8.880;2023-07-31T14:59:58;23.20;99.90
12634;DHT22;6382;48.614;8.880;2023-07-31T15:02:25;23.10;99.90
12634;DHT22;6382;48.614;8.880;2023-07-31T15:04:52;24.40;99.90
12634;DHT22;6382;48.614;8.880;2023-07-31T15:07:19;23.20;99.90
12634;DHT22;6382;48.614;8.880;2023-07-31T15:09:46;23.10;99.90
12634;DHT22;6382;48.614;8.880;2023-07-31T15:12:13;24.40;99.90
12634;DHT22;6382;48.614;8.880;2023-07-31T15:14:40;23.00;99.90
12634;DHT22;6382;48.614;8.880;2023-07-31T15:17:07;23.00;99.90
12634;DHT22;6382;48.614;8.880;2023-07-31T15:19:34;23.00;99.90
12634;DHT22;6382;48.614;8.880;2023-07-31T15:22:03;23.00;99.90
12634;DHT22;6382;48.614;8.880;2023-07-31T15:24:30;23.00;99.90
12634;DHT22;6382;48.614;8.880;2023-07-31T15:26:57;23.00;99.90
12634;DHT22;6382;48.614;8.880;2023-07-31T15:29:24;23.00;99.90
12634;DHT22;6382;48.614;8.880;2023-07-31T15:31:51;22.90;99.90
12634;DHT22;6382;48.614;8.880;2023-07-31T15:34:18;22.80;99.90
12634;DHT22;6382;48.614;8.880;2023-07-31T15:36:46;22.80;99.90
12634;DHT22;6382;48.614;8.880;2023-07-31T15:39:12;22.80;99.90
12634;DHT22;6382;48.614;8.880;2023-07-31T15:41:39;22.80;99.90
12634;DHT22;6382;48.614;8.880;2023-07-31T15:44:06;23.00;99.90
12634;DHT22;6382;48.614;8.880;2023-07-31T15:46:33;22.80;99.90
12634;DHT22;6382;48.614;8.880;2023-07-31T15:49:00;22.70;99.90
12634;DHT22;6382;48.614;8.880;2023-07-31T15:51:29;22.80;99.90
12634;DHT22;6382;48.614;8.880;2023-07-31T15:53:56;23.70;99.90
12634;DHT22;6382;48.614;8.880;2023-07-31T15:56:23;22.80;99.90
12634;DHT22;6382;48.614;8.880;2023-07-31T15:58:50;22.60;99.90
12634;DHT22;6382;48.614;8.880;2023-07-31T16:01:17;22.80;99.90